Warning: Javascript must be enabled to use all the features on this page!


Page Loading - Please Wait...

Click to hideNews Bulletins

Peak Streamflow for the Nation

USGS 01105000 NEPONSET RIVER AT NORWOOD, MA

Norfolk County, Massachusetts
Hydrologic Unit Code 01090001
Latitude  42°10'39", Longitude  71°12'05" NAD27
Drainage area 34.7  square miles
Contributing drainage area 34.7  square miles
Gage datum 43.25 feet above NAVD88
Output formats
Table
Graph
Tab-separated file
peakfq (watstore) format
Reselect output format
Water
Year
Date Gage
Height
(feet)
Stream-
flow
(cfs)
1938 1938-07-24 11.05 4402,7
1940 1940-04-22 9.55 2265
1941 1941-02-08 9.86 2405
1942 1942-03-17 9.80 3045
1943 1943-05-15 9.35 2305
1944 1944-09-15 9.23 2005
1945 1945-03-07 9.52 2545
1946 1945-12-07 10.38 4145
1947 1947-03-03 9.23 2125
1948 1948-03-21 10.30 3985
1949 1949-04-08 8.68 1655
1950 1950-03-23 9.04 1765
1951 1951-04-03 9.64 2555
1952 1952-03-12 10.08 3365
1953 1953-03-30 10.14 3985
1954 1954-05-09 10.90 4305
1955 1955-08-19 14.65 1,4905
1956 1955-11-05 11.32 4865
1957 1957-01-23 9.55 2475
1958 1958-01-27 10.69 3845
1959 1959-03-07 10.25 3215
1960 1960-02-20 9.66 2475
1961 1961-05-28 7.66 3185
1962 1962-04-02 7.50 3685
1963 1962-10-07 8.11 4735
1964 1964-01-26 7.52 3925
1965 1965-02-26 7.16 3045
1966 1966-02-14 6.92 1935
1967 1967-05-26 7.83 3925
1968 1968-03-18 10.48 1,1405
1969 1969-03-26 8.52 6365
1970 1969-12-27 8.87 6815
1971 1971-02-13 7.75 2985
1972 1972-03-03 8.25 4275
1973 1973-02-03 8.27 4325
1974 1974-03-21 8.19 4105
1975 1975-02-25 7.77 3035
1976 1976-01-28 9.36 6845
1977 1977-03-23   4002,5
1978 1978-03-28 8.75 5295
1979 1979-01-26 9.89 8375
1980 1979-10-03 8.38 4435
1981 1981-02-26 7.73 3065
1982 1982-06-07 9.24 6535
1983 1983-04-25 8.43 4535
1984 1984-05-31 10.22 9435
1985 1985-09-27 7.74 3075
1986 1986-01-27   4002,5
1987 1987-04-07 9.38 6915
1988 1988-07-27 8.12 3865
1989 1989-08-13 7.80 3205
1990 1990-08-11 9.14 6265
1991 1990-10-14 7.82 3225
1992 1991-11-01 7.46 2495
1993 1993-03-31 8.17 3965
1994 1994-03-10 8.05 3715
1995 1994-12-24 7.46 2525
1996 1996-01-19 8.06 3735
1997 1996-10-21 9.45 7605
1998 1998-06-14 10.89 1,1005
1999 1999-01-18 8.37 4685
2000 2000-04-22 7.78 3345
2001 2001-06-17 9.46 7355
2002 2002-05-14 7.43 2595
2003 2003-03-30 7.84 3475
2004 2004-04-02 8.26 4425
2005 2005-03-29 8.48 4985
2006 2005-10-15 9.96 8605
2007 2007-04-16 8.52 5055
2008 2008-02-13 8.85 5835
2009 2008-12-12 8.92 6005
2010 2010-03-30 11.16 1,1805
2011 2011-03-08 8.37 4585
2012 2011-12-08 8.08 3915
2013 2013-06-14 8.44 4745
2014 2014-03-31 8.56 5015
2015 2014-12-09 8.61 5125
2016 2016-04-07 7.55 2835
2017 2017-04-06 7.93 3645
2018 2018-09-18 8.63 5195
2019 2019-08-08 8.42 4705
2020 2020-06-28 9.47 7195
2021 2021-09-02 8.94 5895
?
  Peak Streamflow Qualification Codes.